ZA-0039 weather

Blackie Swart Airport
Blackie Swart, Mpumalanga, South Africa

Public forecast

Using degrees Celsius for public forecast. Weather courtesy of forecast.io.

Closest aviation weather report (METAR) to Blackie Swart Airport

Closest report is Kruger Mpumalanga International Airport, 13.5 nm (25.0 km) NNE. Retrieved 2020/01/26 14:00 UTC (14 minutes ago):

FAKN 261400Z 05008KT 9999 FEW030 32/20 Q1013 NOSIG

Closest aviation forecast (TAF) to Blackie Swart Airport

Forecast is more than 12 hours old.

Closest forecast is Kruger Mpumalanga International Airport, 13.5 nm (25.0 km) NNE. Retrieved 2017/06/05 04:55 UTC (3 years ago):

TAF FAKN 050300Z 0504/0515 25006KT CAVOK BECMG 0511/0513 13005KT SCT030 BECMG 0513/0515 07005KT TX22/0513ZTN08/0504Z